createdAt,value
2023-02-28T00:01:24.868Z,59.25
2023-02-28T00:03:26.385Z,47.83
2023-02-28T00:05:29.262Z,27.95
2023-02-28T00:07:31.640Z,23.05
2023-02-28T00:09:33.169Z,28.08
2023-02-28T00:11:34.723Z,41.60
2023-02-28T00:13:41.020Z,24.90
2023-02-28T00:15:42.524Z,29.92
2023-02-28T00:17:44.952Z,21.40
2023-02-28T00:19:46.463Z,21.83
2023-02-28T00:21:48.029Z,16.25
2023-02-28T00:23:50.047Z,15.48
2023-02-28T00:25:52.419Z,15.05
2023-02-28T00:27:54.190Z,16.58
2023-02-28T00:29:55.786Z,15.88
2023-02-28T00:31:57.395Z,14.65
2023-02-28T00:33:59.244Z,14.55
2023-02-28T00:36:10.425Z,15.50
2023-02-28T00:38:11.947Z,17.15
2023-02-28T00:40:13.651Z,25.00
2023-02-28T00:42:15.290Z,22.88
2023-02-28T00:44:16.784Z,20.15
2023-02-28T00:46:18.378Z,20.88
2023-02-28T00:48:19.976Z,23.13
2023-02-28T00:50:21.940Z,24.58
2023-02-28T00:52:23.502Z,26.13
2023-02-28T00:54:25.450Z,25.48
2023-02-28T00:56:26.938Z,26.42
2023-02-28T00:58:28.810Z,22.50
2023-02-28T01:00:30.351Z,22.52
2023-02-28T01:02:31.905Z,20.33
2023-02-28T01:04:33.526Z,18.30
2023-02-28T01:06:35.260Z,16.42
2023-02-28T01:08:36.838Z,17.48
2023-02-28T01:10:39.330Z,16.92
2023-02-28T01:12:40.852Z,15.25
2023-02-28T01:14:42.442Z,15.30
2023-02-28T01:16:44.426Z,14.63
2023-02-28T01:18:46.001Z,15.85
2023-02-28T01:20:47.549Z,13.80
2023-02-28T01:22:49.051Z,13.05
2023-02-28T01:24:50.621Z,12.02
2023-02-28T01:26:52.266Z,10.70
2023-02-28T01:28:54.200Z,10.82
2023-02-28T01:30:55.709Z,11.18
2023-02-28T01:32:57.464Z,10.75
2023-02-28T01:34:59.025Z,12.52
2023-02-28T01:37:00.618Z,15.57
2023-02-28T01:39:02.121Z,15.40
2023-02-28T01:41:04.179Z,14.68
2023-02-28T01:43:25.236Z,12.93
2023-02-28T01:45:28.534Z,9.05
2023-02-28T01:47:34.396Z,9.70
2023-02-28T01:49:35.908Z,10.25
2023-02-28T01:51:47.406Z,10.38
2023-02-28T01:53:53.951Z,11.30
2023-02-28T01:55:55.810Z,11.98
2023-02-28T01:58:01.043Z,11.68
2023-02-28T02:00:09.059Z,11.93
2023-02-28T02:02:10.749Z,11.23
2023-02-28T02:04:12.544Z,10.40
2023-02-28T02:06:14.153Z,10.15
2023-02-28T02:08:27.186Z,9.57
2023-02-28T02:10:44.142Z,10.07
2023-02-28T02:13:09.187Z,9.30
2023-02-28T02:15:17.221Z,9.75
2023-02-28T02:17:48.273Z,9.77
2023-02-28T02:20:05.022Z,9.43
2023-02-28T02:22:53.744Z,11.88
2023-02-28T02:25:14.815Z,10.15
2023-02-28T02:27:23.342Z,10.02
2023-02-28T02:29:29.970Z,8.15
2023-02-28T02:31:53.126Z,9.50
2023-02-28T02:34:19.870Z,7.68
2023-02-28T02:36:30.718Z,7.75
2023-02-28T02:38:51.010Z,8.60
2023-02-28T02:41:20.450Z,8.90
2023-02-28T02:45:37.104Z,7.40
2023-02-28T02:47:40.599Z,8.50
2023-02-28T02:49:47.905Z,10.38
2023-02-28T02:51:52.267Z,11.88
2023-02-28T02:54:01.933Z,11.07
2023-02-28T02:58:11.239Z,9.43
2023-02-28T03:00:15.452Z,8.82
2023-02-28T03:02:18.863Z,9.05
2023-02-28T03:04:23.490Z,11.32
2023-02-28T03:06:26.174Z,9.02
2023-02-28T03:08:30.914Z,8.50
2023-02-28T03:10:34.497Z,10.68
2023-02-28T03:13:04.871Z,9.68
2023-02-28T03:15:24.728Z,8.93
2023-02-28T03:17:44.156Z,8.27
2023-02-28T03:20:14.102Z,13.20
2023-02-28T03:22:35.830Z,12.07
2023-02-28T03:25:03.380Z,10.27
2023-02-28T03:27:10.359Z,10.13
2023-02-28T03:29:28.860Z,10.98
2023-02-28T03:31:39.724Z,9.13
2023-02-28T03:33:47.355Z,9.63
2023-02-28T03:35:53.912Z,10.93
2023-02-28T03:38:04.479Z,9.68
2023-02-28T03:40:14.070Z,9.10
2023-02-28T03:44:44.351Z,10.10
2023-02-28T03:46:55.399Z,10.27
2023-02-28T03:49:03.189Z,9.93
2023-02-28T03:51:09.978Z,11.30
2023-02-28T03:53:33.786Z,10.55
2023-02-28T03:56:01.630Z,11.40
2023-02-28T03:58:12.551Z,12.40
2023-02-28T04:00:22.351Z,13.63
2023-02-28T04:02:23.974Z,13.60
2023-02-28T04:04:26.118Z,11.73
2023-02-28T04:06:28.227Z,14.50
2023-02-28T04:08:29.874Z,24.77
2023-02-28T04:10:31.443Z,10.20
2023-02-28T04:12:32.981Z,14.70
2023-02-28T04:14:34.515Z,9.80
2023-02-28T04:16:38.945Z,8.77
2023-02-28T04:18:41.073Z,10.43
2023-02-28T04:20:42.642Z,32.20
2023-02-28T04:22:44.159Z,22.30
2023-02-28T04:24:45.968Z,14.30
2023-02-28T04:26:50.070Z,12.13
2023-02-28T04:28:51.559Z,17.30
2023-02-28T04:31:03.764Z,17.00
2023-02-28T04:33:05.353Z,24.85
2023-02-28T04:35:07.501Z,30.77
2023-02-28T04:37:14.061Z,25.65
2023-02-28T04:39:16.857Z,25.35
2023-02-28T04:41:19.779Z,17.48
2023-02-28T04:43:21.269Z,11.90
2023-02-28T04:45:22.846Z,12.27
2023-02-28T04:47:24.362Z,10.80
2023-02-28T04:49:26.016Z,12.07
2023-02-28T04:51:27.907Z,14.18
2023-02-28T04:53:30.378Z,14.63
2023-02-28T04:55:31.888Z,19.63
2023-02-28T04:57:33.405Z,17.42
2023-02-28T04:59:35.035Z,16.15
2023-02-28T05:01:37.425Z,15.45
2023-02-28T05:03:41.613Z,17.25
2023-02-28T05:05:43.271Z,19.52
2023-02-28T05:07:46.031Z,17.00
2023-02-28T05:09:47.507Z,15.32
2023-02-28T05:11:49.347Z,18.90
2023-02-28T05:13:51.590Z,22.60
2023-02-28T05:15:53.225Z,25.02
2023-02-28T05:17:55.052Z,35.30
2023-02-28T05:20:03.820Z,31.00
2023-02-28T05:22:17.838Z,28.70
2023-02-28T05:24:26.161Z,28.42
2023-02-28T05:26:28.884Z,36.47
2023-02-28T05:28:30.585Z,41.60
2023-02-28T05:30:33.645Z,39.65
2023-02-28T05:32:35.277Z,34.83
2023-02-28T05:34:37.700Z,23.73
2023-02-28T05:36:39.841Z,22.02
2023-02-28T05:38:41.511Z,23.60
2023-02-28T05:40:43.049Z,25.95
2023-02-28T05:42:44.567Z,27.25
2023-02-28T05:44:46.621Z,29.25
2023-02-28T05:46:48.145Z,31.98
2023-02-28T05:48:50.220Z,28.58
2023-02-28T05:50:51.897Z,28.67
2023-02-28T05:52:53.429Z,28.42
2023-02-28T05:54:54.979Z,33.90
2023-02-28T05:56:56.528Z,28.45
2023-02-28T05:58:58.158Z,24.65
2023-02-28T06:01:00.847Z,24.48
2023-02-28T06:03:03.222Z,29.27
2023-02-28T06:05:05.044Z,29.25
2023-02-28T06:07:06.554Z,28.15
2023-02-28T06:09:08.036Z,37.88
2023-02-28T06:11:09.529Z,26.25
2023-02-28T06:13:11.054Z,20.58
2023-02-28T06:15:16.725Z,23.65
2023-02-28T06:17:18.300Z,45.13
2023-02-28T06:19:19.901Z,23.20
2023-02-28T06:21:21.465Z,15.82
2023-02-28T06:23:23.236Z,18.33
2023-02-28T06:25:25.417Z,24.05
2023-02-28T06:27:27.036Z,17.38
2023-02-28T06:29:28.557Z,15.70
2023-02-28T06:31:30.729Z,22.05
2023-02-28T06:33:32.515Z,16.48
2023-02-28T06:35:34.110Z,21.10
2023-02-28T06:37:35.613Z,23.00
2023-02-28T06:39:37.415Z,19.25
2023-02-28T06:41:53.544Z,24.65
2023-02-28T06:43:56.556Z,26.50
2023-02-28T06:46:00.530Z,21.83
2023-02-28T06:48:02.293Z,21.42
2023-02-28T06:50:04.712Z,24.25
2023-02-28T06:52:06.545Z,26.05
2023-02-28T06:54:09.998Z,26.17
2023-02-28T06:56:13.931Z,25.75
2023-02-28T06:58:21.518Z,28.25
2023-02-28T07:00:23.134Z,33.20
2023-02-28T07:02:24.716Z,34.72
2023-02-28T07:04:26.653Z,31.92
2023-02-28T07:06:28.791Z,34.67
2023-02-28T07:08:30.337Z,38.45
2023-02-28T07:10:31.879Z,43.85
2023-02-28T07:12:33.747Z,42.63
2023-02-28T07:14:38.011Z,33.22
2023-02-28T07:16:39.510Z,28.58
2023-02-28T07:18:41.145Z,25.08
2023-02-28T07:20:42.636Z,25.15
2023-02-28T07:22:44.391Z,27.75
2023-02-28T07:24:46.128Z,27.23
2023-02-28T07:26:47.733Z,24.63
2023-02-28T07:28:50.255Z,25.30
2023-02-28T07:30:52.041Z,28.05
2023-02-28T07:32:55.730Z,23.45
2023-02-28T07:34:57.329Z,30.13
2023-02-28T07:36:58.991Z,32.92
2023-02-28T07:39:00.637Z,28.63
2023-02-28T07:41:05.322Z,22.75
2023-02-28T07:43:06.851Z,18.65
2023-02-28T07:45:12.655Z,23.63
2023-02-28T07:47:14.300Z,16.95
2023-02-28T07:49:15.815Z,21.73
2023-02-28T07:51:17.464Z,15.98
2023-02-28T07:53:18.967Z,14.15
2023-02-28T07:55:20.490Z,14.02
2023-02-28T07:57:22.418Z,14.07
2023-02-28T07:59:24.083Z,35.58
2023-02-28T08:01:25.841Z,16.75
2023-02-28T08:03:27.360Z,16.45
2023-02-28T08:05:28.996Z,14.45
2023-02-28T08:07:30.550Z,17.00
2023-02-28T08:09:32.086Z,15.30
2023-02-28T08:11:33.612Z,25.33
2023-02-28T08:13:35.225Z,12.70
2023-02-28T08:15:37.331Z,13.02
2023-02-28T08:17:38.968Z,44.92
2023-02-28T08:19:40.538Z,11.35
2023-02-28T08:21:42.079Z,14.77
2023-02-28T08:23:43.894Z,12.07
2023-02-28T08:25:45.522Z,14.38
2023-02-28T08:27:47.049Z,21.55
2023-02-28T08:29:48.605Z,12.07
2023-02-28T08:31:50.393Z,10.05
2023-02-28T08:33:54.132Z,10.15
2023-02-28T08:35:57.111Z,9.90
2023-02-28T08:37:59.309Z,9.15
2023-02-28T08:40:00.933Z,8.35
2023-02-28T08:42:07.999Z,15.77
2023-02-28T08:44:09.787Z,19.20
2023-02-28T08:46:15.164Z,14.48
2023-02-28T08:48:19.542Z,20.52
2023-02-28T08:50:21.205Z,11.18
2023-02-28T08:52:22.770Z,10.43
2023-02-28T08:54:25.166Z,9.95
2023-02-28T08:56:28.551Z,7.60
2023-02-28T08:58:30.156Z,14.88
2023-02-28T09:00:31.755Z,12.10
2023-02-28T09:02:33.369Z,10.43
2023-02-28T09:04:35.346Z,8.93
2023-02-28T09:06:36.873Z,13.68
2023-02-28T09:08:38.649Z,50.58
2023-02-28T09:10:40.165Z,7.85
2023-02-28T09:12:41.751Z,8.57
2023-02-28T09:14:44.491Z,9.35
2023-02-28T09:16:46.077Z,9.43
2023-02-28T09:18:48.162Z,10.40
2023-02-28T09:20:49.673Z,10.57
2023-02-28T09:22:51.190Z,10.32
2023-02-28T09:24:52.943Z,11.70
2023-02-28T09:27:03.867Z,22.33
2023-02-28T09:29:06.255Z,9.88
2023-02-28T09:31:07.822Z,23.15
2023-02-28T09:33:09.387Z,13.82
2023-02-28T09:35:14.407Z,11.90
2023-02-28T09:37:15.989Z,17.83
2023-02-28T09:39:17.522Z,11.98
2023-02-28T09:41:23.230Z,7.65
2023-02-28T09:43:32.803Z,10.38
2023-02-28T09:45:38.901Z,8.02
2023-02-28T09:47:45.255Z,7.25
2023-02-28T09:49:48.832Z,8.10
2023-02-28T09:52:11.338Z,7.30
2023-02-28T09:54:21.806Z,7.75
2023-02-28T09:56:32.913Z,7.80
2023-02-28T09:58:53.929Z,7.60
2023-02-28T10:01:19.978Z,7.78
2023-02-28T10:03:36.444Z,7.22
2023-02-28T10:06:06.603Z,7.97
2023-02-28T10:08:42.471Z,7.30
2023-02-28T10:10:47.612Z,14.93
2023-02-28T10:12:52.159Z,15.25
2023-02-28T10:14:56.166Z,11.18
2023-02-28T10:17:02.050Z,7.28
2023-02-28T10:19:09.616Z,7.95
2023-02-28T10:21:21.475Z,7.47
2023-02-28T10:23:28.105Z,6.88
2023-02-28T10:25:30.778Z,8.60
2023-02-28T10:27:33.628Z,7.95
2023-02-28T10:29:35.267Z,18.00
2023-02-28T10:31:36.834Z,10.85
2023-02-28T10:33:38.789Z,6.47
2023-02-28T10:35:40.301Z,7.20
2023-02-28T10:37:45.099Z,7.60
2023-02-28T10:39:47.610Z,7.53
2023-02-28T10:41:49.306Z,6.47
2023-02-28T10:43:50.896Z,7.93
2023-02-28T10:46:10.991Z,8.18
2023-02-28T10:48:15.567Z,9.30
2023-02-28T10:50:48.310Z,10.88
2023-02-28T10:52:49.916Z,6.72
2023-02-28T10:55:15.666Z,8.38
2023-02-28T10:57:25.482Z,10.43
2023-02-28T10:59:32.137Z,7.78
2023-02-28T11:01:41.404Z,7.50
2023-02-28T11:03:42.998Z,7.95
2023-02-28T11:05:44.990Z,7.35
2023-02-28T11:07:54.481Z,7.20
2023-02-28T11:09:58.550Z,7.20
2023-02-28T11:12:01.076Z,7.70
2023-02-28T11:14:07.307Z,10.60
2023-02-28T11:16:11.537Z,7.57
2023-02-28T11:18:13.069Z,6.95
2023-02-28T11:20:25.930Z,6.43
2023-02-28T11:22:30.183Z,7.75
2023-02-28T11:24:38.707Z,8.13
2023-02-28T11:26:46.385Z,8.23
2023-02-28T11:28:48.278Z,9.30
2023-02-28T11:31:16.173Z,7.63
2023-02-28T11:33:46.070Z,12.07
2023-02-28T11:37:51.323Z,7.60
2023-02-28T11:39:52.892Z,7.53
2023-02-28T11:42:03.193Z,8.07
2023-02-28T11:44:11.095Z,8.27
2023-02-28T11:46:22.236Z,8.10
2023-02-28T11:48:29.230Z,14.85
2023-02-28T11:50:46.863Z,8.43
2023-02-28T11:52:59.518Z,13.40
2023-02-28T11:55:21.827Z,10.45
2023-02-28T11:57:23.266Z,9.20
2023-02-28T11:59:44.615Z,10.07
2023-02-28T12:02:04.999Z,9.40
2023-02-28T12:04:26.860Z,10.30
2023-02-28T12:06:55.285Z,11.25
2023-02-28T12:09:17.086Z,8.48
2023-02-28T12:11:39.363Z,9.27
2023-02-28T12:13:54.000Z,10.25
2023-02-28T12:16:22.082Z,9.02
2023-02-28T12:18:46.878Z,7.80
2023-02-28T12:21:03.218Z,7.43
2023-02-28T12:23:20.315Z,7.63
2023-02-28T12:25:42.088Z,7.93
2023-02-28T12:27:47.281Z,8.02
2023-02-28T12:29:59.730Z,8.43
2023-02-28T12:32:26.249Z,7.38
2023-02-28T12:34:32.734Z,6.88
2023-02-28T12:36:36.036Z,6.72
2023-02-28T12:38:45.012Z,7.93
2023-02-28T12:41:12.946Z,7.63
2023-02-28T12:43:17.620Z,8.30
2023-02-28T12:45:41.493Z,7.53
2023-02-28T12:47:45.593Z,12.50
2023-02-28T12:49:52.431Z,8.63
2023-02-28T12:51:54.332Z,8.05
2023-02-28T12:54:06.048Z,7.50
2023-02-28T12:56:16.404Z,8.10
2023-02-28T12:58:26.661Z,7.43
2023-02-28T13:00:36.054Z,8.13
2023-02-28T13:03:12.397Z,7.80
2023-02-28T13:05:51.697Z,8.38
2023-02-28T13:08:05.513Z,9.35
2023-02-28T13:10:11.165Z,12.00
2023-02-28T13:12:17.684Z,8.35
2023-02-28T13:14:34.093Z,8.40
2023-02-28T13:16:58.228Z,10.18
2023-02-28T13:19:11.723Z,9.80
2023-02-28T13:21:29.530Z,9.00
2023-02-28T13:23:52.358Z,11.43
2023-02-28T13:25:54.931Z,9.50
2023-02-28T13:28:01.931Z,9.93
2023-02-28T13:30:42.500Z,8.75
2023-02-28T13:32:44.420Z,11.35
2023-02-28T13:35:05.842Z,47.10
2023-02-28T13:37:22.407Z,17.00
2023-02-28T13:39:51.072Z,9.07
2023-02-28T13:41:52.636Z,8.25
2023-02-28T13:44:02.175Z,8.65
2023-02-28T13:46:11.694Z,9.13
2023-02-28T13:48:20.202Z,12.82
2023-02-28T13:50:25.053Z,10.30
2023-02-28T13:52:26.969Z,16.60
2023-02-28T13:54:40.839Z,10.75
2023-02-28T13:56:50.585Z,9.75
2023-02-28T13:59:13.702Z,10.57
2023-02-28T14:01:18.242Z,9.20
2023-02-28T14:03:19.761Z,8.27
2023-02-28T14:05:26.734Z,9.45
2023-02-28T14:07:44.586Z,8.85
2023-02-28T14:10:00.179Z,8.55
2023-02-28T14:12:39.415Z,8.98
2023-02-28T14:14:40.912Z,10.00
2023-02-28T14:16:48.067Z,15.38
2023-02-28T14:19:01.472Z,9.93
2023-02-28T14:21:30.047Z,10.20
2023-02-28T14:23:50.223Z,10.27
2023-02-28T14:26:07.793Z,18.20
2023-02-28T14:28:49.654Z,11.68
2023-02-28T14:30:57.924Z,10.70
2023-02-28T14:33:25.019Z,10.43
2023-02-28T14:35:26.498Z,8.57
2023-02-28T14:37:31.262Z,9.60
2023-02-28T14:39:33.831Z,9.90
2023-02-28T14:41:40.967Z,9.13
2023-02-28T14:43:51.249Z,9.77
2023-02-28T14:46:00.526Z,9.07
2023-02-28T14:48:05.768Z,9.85
2023-02-28T14:50:10.009Z,10.77
2023-02-28T14:52:16.954Z,12.07
2023-02-28T14:54:25.066Z,9.30
2023-02-28T14:56:45.284Z,9.82
2023-02-28T14:58:53.761Z,9.82
2023-02-28T15:00:58.344Z,8.60
2023-02-28T15:03:01.882Z,8.60
2023-02-28T15:05:27.355Z,10.55
2023-02-28T15:07:31.507Z,10.05
2023-02-28T15:09:33.041Z,15.73
2023-02-28T15:11:34.864Z,9.23
2023-02-28T15:13:51.511Z,12.23
2023-02-28T15:16:02.302Z,9.63
2023-02-28T15:18:08.677Z,15.35
2023-02-28T15:20:15.131Z,12.75
2023-02-28T15:22:19.367Z,15.15
2023-02-28T15:24:31.360Z,13.05
2023-02-28T15:26:36.782Z,17.98
2023-02-28T15:28:38.322Z,17.88
2023-02-28T15:30:40.117Z,19.92
2023-02-28T15:32:48.265Z,17.33
2023-02-28T15:34:50.683Z,16.92
2023-02-28T15:36:52.212Z,22.02
2023-02-28T15:38:55.048Z,30.10
2023-02-28T15:40:59.446Z,30.23
2023-02-28T15:43:06.266Z,22.85
2023-02-28T15:45:32.943Z,24.50
2023-02-28T15:47:34.581Z,28.70
2023-02-28T15:49:55.473Z,29.13
2023-02-28T15:52:00.223Z,31.58
2023-02-28T15:54:30.162Z,28.80
2023-02-28T15:56:40.326Z,29.23
2023-02-28T15:58:43.260Z,32.80
2023-02-28T16:01:00.374Z,46.58
2023-02-28T16:03:29.080Z,51.05
2023-02-28T16:05:32.935Z,151.03
2023-02-28T16:07:44.616Z,95.22
2023-02-28T16:09:57.280Z,130.70
2023-02-28T16:12:04.103Z,79.47
2023-02-28T16:14:06.382Z,94.43
2023-02-28T16:16:08.066Z,105.28
2023-02-28T16:18:12.550Z,62.13
2023-02-28T16:20:25.818Z,88.75
2023-02-28T16:22:27.476Z,59.22
2023-02-28T16:24:29.098Z,44.70
2023-02-28T16:26:30.722Z,35.65
2023-02-28T16:28:35.893Z,47.13
2023-02-28T16:30:38.900Z,51.72
2023-02-28T16:32:40.573Z,41.53
2023-02-28T16:34:43.891Z,39.50
2023-02-28T16:36:47.976Z,39.83
2023-02-28T16:38:50.191Z,36.05
2023-02-28T16:40:54.145Z,42.65
2023-02-28T16:42:59.875Z,38.03
2023-02-28T16:45:01.841Z,35.63
2023-02-28T16:47:05.185Z,35.92
2023-02-28T16:49:12.279Z,34.88
2023-02-28T16:51:15.282Z,33.10
2023-02-28T16:53:16.791Z,40.00
2023-02-28T16:55:18.903Z,52.47
2023-02-28T16:57:24.220Z,58.65
2023-02-28T16:59:28.236Z,56.45
2023-02-28T17:01:30.205Z,58.45
2023-02-28T17:03:33.814Z,60.72
2023-02-28T17:05:39.496Z,61.97
2023-02-28T17:07:41.198Z,73.53
2023-02-28T17:09:45.463Z,71.60
2023-02-28T17:11:47.863Z,85.88
2023-02-28T17:13:50.170Z,88.72
2023-02-28T17:15:51.869Z,96.60
2023-02-28T17:17:54.390Z,83.38
2023-02-28T17:19:55.911Z,70.07
2023-02-28T17:21:57.422Z,61.38
2023-02-28T17:23:59.294Z,198.07
2023-02-28T17:26:00.976Z,68.80
2023-02-28T17:28:02.474Z,86.22
2023-02-28T17:30:14.619Z,80.10
2023-02-28T17:32:18.311Z,98.88
2023-02-28T17:34:20.729Z,121.00
2023-02-28T17:36:27.794Z,107.18
2023-02-28T17:38:29.734Z,85.13
2023-02-28T17:40:31.485Z,92.80
2023-02-28T17:42:33.057Z,87.22
2023-02-28T17:44:34.772Z,92.40
2023-02-28T17:46:37.154Z,97.88
2023-02-28T17:48:39.047Z,115.05
2023-02-28T17:50:40.588Z,131.90
2023-02-28T17:52:42.114Z,144.68
2023-02-28T17:54:44.588Z,145.35
2023-02-28T17:56:46.313Z,131.43
2023-02-28T17:58:48.546Z,141.82
2023-02-28T18:00:54.764Z,155.25
2023-02-28T18:02:56.633Z,152.27
2023-02-28T18:04:59.180Z,176.45
2023-02-28T18:07:01.143Z,177.60
2023-02-28T18:09:02.769Z,177.88
2023-02-28T18:11:04.381Z,177.55
2023-02-28T18:13:06.089Z,193.07
2023-02-28T18:15:08.183Z,213.00
2023-02-28T18:17:13.281Z,220.63
2023-02-28T18:19:15.876Z,158.40
2023-02-28T18:21:17.576Z,107.15
2023-02-28T18:23:21.150Z,99.32
2023-02-28T18:25:23.435Z,85.78
2023-02-28T18:27:25.077Z,101.43
2023-02-28T18:29:28.573Z,101.43
2023-02-28T18:31:32.409Z,96.50
2023-02-28T18:33:34.029Z,88.18
2023-02-28T18:35:35.680Z,76.80
2023-02-28T18:37:38.361Z,87.18
2023-02-28T18:39:40.630Z,85.72
2023-02-28T18:41:42.228Z,89.38
2023-02-28T18:43:44.395Z,107.18
2023-02-28T18:45:45.963Z,101.05
2023-02-28T18:47:47.476Z,87.18
2023-02-28T18:49:49.046Z,78.68
2023-02-28T18:51:50.547Z,78.82
2023-02-28T18:53:52.772Z,77.80
2023-02-28T18:55:54.901Z,68.60
2023-02-28T18:57:56.430Z,71.30
2023-02-28T18:59:57.954Z,97.47
2023-02-28T19:01:59.478Z,107.00
2023-02-28T19:04:03.543Z,180.75
2023-02-28T19:06:05.360Z,78.88
2023-02-28T19:08:06.974Z,77.43
2023-02-28T19:10:09.791Z,74.80
2023-02-28T19:12:11.370Z,65.97
2023-02-28T19:14:12.914Z,46.85
2023-02-28T19:16:16.465Z,43.83
2023-02-28T19:18:18.030Z,45.67
2023-02-28T19:20:19.852Z,44.53
2023-02-28T19:22:21.617Z,47.35
2023-02-28T19:24:23.194Z,43.22
2023-02-28T19:26:26.616Z,44.78
2023-02-28T19:28:30.229Z,41.28
2023-02-28T19:30:31.769Z,39.78
2023-02-28T19:32:33.519Z,42.40
2023-02-28T19:34:37.438Z,53.88
2023-02-28T19:36:38.957Z,52.25
2023-02-28T19:38:41.825Z,51.33
2023-02-28T19:40:43.658Z,47.35
2023-02-28T19:42:45.266Z,49.92
2023-02-28T19:44:46.973Z,63.42
2023-02-28T19:46:48.664Z,70.40
2023-02-28T19:48:53.588Z,75.50
2023-02-28T19:51:01.428Z,85.28
2023-02-28T19:53:03.393Z,95.88
2023-02-28T19:55:05.330Z,73.18
2023-02-28T19:57:07.077Z,65.05
2023-02-28T19:59:16.842Z,56.25
2023-02-28T20:01:23.562Z,53.45
2023-02-28T20:03:25.168Z,48.17
2023-02-28T20:05:26.772Z,49.42
2023-02-28T20:07:28.454Z,46.97
2023-02-28T20:09:32.012Z,48.53
2023-02-28T20:11:33.635Z,56.05
2023-02-28T20:13:35.721Z,127.78
2023-02-28T20:15:37.967Z,89.32
2023-02-28T20:17:42.057Z,81.07
2023-02-28T20:19:43.622Z,98.40
2023-02-28T20:21:45.465Z,81.43
2023-02-28T20:23:48.864Z,90.45
2023-02-28T20:25:51.738Z,69.93
2023-02-28T20:27:53.344Z,48.08
2023-02-28T20:29:54.916Z,45.20
2023-02-28T20:31:57.806Z,50.97
2023-02-28T20:33:59.405Z,70.07
2023-02-28T20:36:05.612Z,41.65
2023-02-28T20:38:07.234Z,50.38
2023-02-28T20:40:10.068Z,57.10
2023-02-28T20:42:11.557Z,53.83
2023-02-28T20:44:13.665Z,55.13
2023-02-28T20:46:15.194Z,45.55
2023-02-28T20:48:16.806Z,48.92
2023-02-28T20:50:18.482Z,51.58
2023-02-28T20:52:20.002Z,45.88
2023-02-28T20:54:21.738Z,51.35
2023-02-28T20:56:23.907Z,47.88
2023-02-28T20:58:27.572Z,53.70
2023-02-28T21:00:29.108Z,58.17
2023-02-28T21:02:31.117Z,59.17
2023-02-28T21:04:32.886Z,53.28
2023-02-28T21:06:40.376Z,63.53
2023-02-28T21:08:42.675Z,66.30
2023-02-28T21:10:44.237Z,63.08
2023-02-28T21:12:45.754Z,64.22
2023-02-28T21:14:47.466Z,71.50
2023-02-28T21:16:48.975Z,80.72
2023-02-28T21:18:50.657Z,78.30
2023-02-28T21:20:52.186Z,79.10
2023-02-28T21:22:53.743Z,85.90
2023-02-28T21:24:55.295Z,102.43
2023-02-28T21:26:57.699Z,94.15
2023-02-28T21:29:01.954Z,90.78
2023-02-28T21:31:05.686Z,83.05
2023-02-28T21:33:07.314Z,83.50
2023-02-28T21:35:09.253Z,77.47
2023-02-28T21:37:11.076Z,83.78
2023-02-28T21:39:25.902Z,88.75
2023-02-28T21:41:31.314Z,96.78
2023-02-28T21:43:33.145Z,85.95
2023-02-28T21:45:34.903Z,100.22
2023-02-28T21:47:36.520Z,94.20
2023-02-28T21:49:39.213Z,82.15
2023-02-28T21:51:42.647Z,91.95
2023-02-28T21:53:44.335Z,73.55
2023-02-28T21:55:45.895Z,80.30
2023-02-28T21:57:47.435Z,68.47
2023-02-28T21:59:49.140Z,69.30
2023-02-28T22:01:51.867Z,80.13
2023-02-28T22:03:53.450Z,83.00
2023-02-28T22:05:55.087Z,84.68
2023-02-28T22:07:56.612Z,82.78
2023-02-28T22:09:58.137Z,80.22
2023-02-28T22:11:59.727Z,81.30
2023-02-28T22:14:01.636Z,82.85
2023-02-28T22:16:05.080Z,83.43
2023-02-28T22:18:06.674Z,78.13
2023-02-28T22:20:10.762Z,77.07
2023-02-28T22:22:12.973Z,74.57
2023-02-28T22:24:15.809Z,72.03
2023-02-28T22:26:20.492Z,74.38
2023-02-28T22:28:22.922Z,72.85
2023-02-28T22:30:24.455Z,73.38
2023-02-28T22:32:26.070Z,77.63
2023-02-28T22:34:27.703Z,78.75
2023-02-28T22:36:30.285Z,82.22
2023-02-28T22:38:35.360Z,89.88
2023-02-28T22:40:37.526Z,90.57
2023-02-28T22:42:39.042Z,107.65
2023-02-28T22:44:41.055Z,106.97
2023-02-28T22:46:42.621Z,105.25
2023-02-28T22:48:44.180Z,111.95
2023-02-28T22:50:45.908Z,100.38
2023-02-28T22:52:47.456Z,95.20
2023-02-28T22:54:50.560Z,92.35
2023-02-28T22:56:52.258Z,91.88
2023-02-28T22:58:56.189Z,91.13
2023-02-28T23:01:08.820Z,83.28
2023-02-28T23:03:10.571Z,78.00
2023-02-28T23:05:13.283Z,73.25
2023-02-28T23:07:15.307Z,75.85
2023-02-28T23:09:18.770Z,72.30
2023-02-28T23:11:23.866Z,65.55
2023-02-28T23:13:25.449Z,59.40
2023-02-28T23:15:27.029Z,82.95
2023-02-28T23:17:30.963Z,157.77
2023-02-28T23:19:32.562Z,98.75
2023-02-28T23:21:34.865Z,80.13
2023-02-28T23:23:36.368Z,86.57
2023-02-28T23:25:41.934Z,85.13
2023-02-28T23:27:44.325Z,81.90
2023-02-28T23:29:46.074Z,83.32
2023-02-28T23:31:48.318Z,92.70
2023-02-28T23:33:50.163Z,84.28
2023-02-28T23:35:51.971Z,85.95
2023-02-28T23:37:57.383Z,90.10
2023-02-28T23:39:58.975Z,86.53
2023-02-28T23:42:01.736Z,72.68
2023-02-28T23:44:04.184Z,69.53
2023-02-28T23:46:05.954Z,72.43
2023-02-28T23:48:07.871Z,73.28
2023-02-28T23:50:10.341Z,63.15
2023-02-28T23:52:11.896Z,63.13
2023-02-28T23:54:13.387Z,58.92
2023-02-28T23:56:18.172Z,65.55
2023-02-28T23:58:19.758Z,64.00
